createdAt,value
2022-11-28T00:01:15.721Z,96.60
2022-11-28T00:03:42.461Z,96.60
2022-11-28T00:06:09.225Z,96.80
2022-11-28T00:08:36.257Z,96.80
2022-11-28T00:11:07.226Z,96.70
2022-11-28T00:13:34.034Z,96.70
2022-11-28T00:16:02.005Z,96.70
2022-11-28T00:18:29.221Z,96.70
2022-11-28T00:21:02.593Z,96.80
2022-11-28T00:23:30.315Z,96.70
2022-11-28T00:25:58.233Z,96.80
2022-11-28T00:28:25.019Z,96.70
2022-11-28T00:30:51.847Z,96.70
2022-11-28T00:33:18.570Z,96.60
2022-11-28T00:35:45.406Z,96.70
2022-11-28T00:38:12.098Z,96.80
2022-11-28T00:40:38.801Z,96.80
2022-11-28T00:43:05.604Z,96.80
2022-11-28T00:45:32.370Z,96.80
2022-11-28T00:47:59.083Z,96.80
2022-11-28T00:50:25.980Z,96.70
2022-11-28T00:52:52.652Z,96.80
2022-11-28T00:55:19.370Z,96.70
2022-11-28T00:57:46.425Z,96.70
2022-11-28T01:00:13.364Z,96.70
2022-11-28T01:02:40.133Z,96.70
2022-11-28T01:05:07.253Z,96.50
2022-11-28T01:07:34.145Z,96.70
2022-11-28T01:10:00.939Z,96.70
2022-11-28T01:12:27.650Z,96.60
2022-11-28T01:14:56.031Z,96.70
2022-11-28T01:17:22.787Z,96.60
2022-11-28T01:19:49.549Z,96.80
2022-11-28T01:22:16.283Z,96.70
2022-11-28T01:24:43.265Z,96.70
2022-11-28T01:27:10.167Z,96.70
2022-11-28T01:29:36.905Z,96.70
2022-11-28T01:32:03.701Z,96.60
2022-11-28T01:34:30.405Z,96.70
2022-11-28T01:36:57.176Z,96.60
2022-11-28T01:39:23.905Z,96.60
2022-11-28T01:41:50.745Z,96.60
2022-11-28T01:44:17.443Z,96.60
2022-11-28T01:46:44.533Z,96.60
2022-11-28T01:49:11.403Z,96.60
2022-11-28T01:51:39.015Z,96.60
2022-11-28T01:54:05.711Z,96.60
2022-11-28T01:56:38.293Z,96.60
2022-11-28T01:59:07.016Z,96.60
2022-11-28T02:01:33.795Z,96.60
2022-11-28T02:04:00.557Z,96.60
2022-11-28T02:06:27.508Z,96.60
2022-11-28T02:08:54.881Z,96.60
2022-11-28T02:11:24.472Z,96.70
2022-11-28T02:14:09.862Z,96.70
2022-11-28T02:17:05.876Z,96.60
2022-11-28T02:19:47.819Z,96.60
2022-11-28T02:22:25.384Z,96.50
2022-11-28T02:24:52.032Z,96.50
2022-11-28T02:27:18.760Z,96.60
2022-11-28T02:30:12.363Z,96.80
2022-11-28T02:32:44.782Z,96.70
2022-11-28T02:35:22.624Z,96.60
2022-11-28T02:37:52.230Z,96.60
2022-11-28T02:40:24.042Z,96.60
2022-11-28T02:43:01.095Z,96.70
2022-11-28T02:45:31.845Z,96.60
2022-11-28T02:48:07.237Z,96.60
2022-11-28T02:50:43.136Z,96.60
2022-11-28T02:53:12.350Z,96.60
2022-11-28T02:55:40.575Z,96.60
2022-11-28T02:58:07.327Z,96.70
2022-11-28T03:00:35.478Z,96.70
2022-11-28T03:03:28.701Z,96.70
2022-11-28T03:06:14.286Z,96.70
2022-11-28T03:09:00.576Z,96.70
2022-11-28T03:11:27.256Z,96.70
2022-11-28T03:13:58.288Z,96.70
2022-11-28T03:16:30.384Z,96.70
2022-11-28T03:19:29.563Z,96.70
2022-11-28T03:22:04.387Z,96.80
2022-11-28T03:24:33.879Z,96.70
2022-11-28T03:27:07.676Z,96.70
2022-11-28T03:29:37.439Z,96.80
2022-11-28T03:32:06.942Z,96.80
2022-11-28T03:34:36.821Z,96.70
2022-11-28T03:37:05.186Z,96.70
2022-11-28T03:39:35.260Z,96.70
2022-11-28T03:42:04.964Z,96.60
2022-11-28T03:44:40.615Z,96.70
2022-11-28T03:47:07.889Z,96.70
2022-11-28T03:49:37.556Z,96.70
2022-11-28T03:52:06.066Z,96.70
2022-11-28T03:54:40.438Z,96.50
2022-11-28T03:57:19.405Z,96.70
2022-11-28T03:59:50.391Z,96.70
2022-11-28T04:02:36.365Z,96.70
2022-11-28T04:05:21.853Z,96.50
2022-11-28T04:08:12.249Z,96.60
2022-11-28T04:10:43.274Z,96.70
2022-11-28T04:13:24.388Z,96.70
2022-11-28T04:15:57.053Z,96.70
2022-11-28T04:18:30.272Z,96.70
2022-11-28T04:21:06.196Z,96.70
2022-11-28T04:23:34.330Z,96.80
2022-11-28T04:26:03.353Z,96.60
2022-11-28T04:28:31.465Z,96.60
2022-11-28T04:30:59.826Z,96.70
2022-11-28T04:33:28.449Z,96.70
2022-11-28T04:35:55.965Z,96.70
2022-11-28T04:38:24.488Z,96.60
2022-11-28T04:40:53.390Z,96.70
2022-11-28T04:43:27.278Z,96.70
2022-11-28T04:45:56.551Z,96.60
2022-11-28T04:48:23.442Z,96.90
2022-11-28T04:50:57.243Z,96.80
2022-11-28T04:53:51.226Z,96.70
2022-11-28T04:56:21.524Z,96.50
2022-11-28T04:58:49.506Z,96.70
2022-11-28T05:01:19.294Z,96.60
2022-11-28T05:03:46.109Z,96.60
2022-11-28T05:06:22.522Z,96.70
2022-11-28T05:08:49.276Z,96.60
2022-11-28T05:11:15.957Z,96.60
2022-11-28T05:13:42.634Z,96.50
2022-11-28T05:16:11.083Z,96.40
2022-11-28T05:18:37.811Z,96.50
2022-11-28T05:21:08.214Z,96.50
2022-11-28T05:23:36.686Z,96.60
2022-11-28T05:26:07.230Z,96.50
2022-11-28T05:28:34.062Z,96.60
2022-11-28T05:31:01.786Z,96.70
2022-11-28T05:33:29.816Z,96.60
2022-11-28T05:35:57.136Z,96.60
2022-11-28T05:38:24.021Z,96.60
2022-11-28T05:40:50.713Z,96.70
2022-11-28T05:43:17.411Z,96.50
2022-11-28T05:45:44.713Z,96.50
2022-11-28T05:48:11.847Z,96.50
2022-11-28T05:50:40.114Z,96.50
2022-11-28T05:53:07.076Z,96.50
2022-11-28T05:55:33.801Z,96.50
2022-11-28T05:58:00.818Z,96.50
2022-11-28T06:00:27.738Z,96.50
2022-11-28T06:02:59.863Z,96.50
2022-11-28T06:05:42.314Z,96.60
2022-11-28T06:08:11.557Z,96.60
2022-11-28T06:10:38.316Z,96.70
2022-11-28T06:13:05.115Z,96.70
2022-11-28T06:15:36.143Z,96.60
2022-11-28T06:18:04.578Z,96.60
2022-11-28T06:20:31.250Z,96.60
2022-11-28T06:22:57.926Z,96.60
2022-11-28T06:25:24.701Z,96.60
2022-11-28T06:27:51.415Z,96.60
2022-11-28T06:30:18.166Z,96.60
2022-11-28T06:32:44.903Z,96.60
2022-11-28T06:35:11.740Z,96.60
2022-11-28T06:37:38.461Z,96.60
2022-11-28T06:40:05.732Z,96.50
2022-11-28T06:42:34.287Z,96.60
2022-11-28T06:45:01.017Z,96.60
2022-11-28T06:47:27.810Z,96.60
2022-11-28T06:49:54.546Z,96.60
2022-11-28T06:52:21.368Z,96.60
2022-11-28T06:54:48.156Z,96.60
2022-11-28T06:57:14.896Z,96.60
2022-11-28T06:59:41.908Z,96.60
2022-11-28T07:02:10.908Z,96.60
2022-11-28T07:04:37.688Z,96.60
2022-11-28T07:07:04.358Z,96.70
2022-11-28T07:09:31.203Z,96.60
2022-11-28T07:11:57.877Z,96.60
2022-11-28T07:14:24.696Z,96.60
2022-11-28T07:16:51.690Z,96.70
2022-11-28T07:19:22.799Z,96.60
2022-11-28T07:21:50.246Z,96.60
2022-11-28T07:24:18.275Z,96.60
2022-11-28T07:26:45.833Z,96.60
2022-11-28T07:29:17.033Z,96.60
2022-11-28T07:31:43.972Z,96.60
2022-11-28T07:34:10.910Z,96.60
2022-11-28T07:36:37.882Z,96.60
2022-11-28T07:39:05.503Z,96.50
2022-11-28T07:41:32.216Z,96.50
2022-11-28T07:44:00.383Z,96.50
2022-11-28T07:46:28.115Z,96.50
2022-11-28T07:48:54.891Z,96.60
2022-11-28T07:51:25.867Z,96.70
2022-11-28T07:53:52.616Z,96.60
2022-11-28T07:56:20.991Z,96.70
2022-11-28T07:58:48.218Z,96.70
2022-11-28T08:01:19.113Z,96.60
2022-11-28T08:03:46.273Z,96.60
2022-11-28T08:06:13.581Z,96.60
2022-11-28T08:08:40.722Z,96.50
2022-11-28T08:11:08.384Z,96.60
2022-11-28T08:13:35.683Z,96.60
2022-11-28T08:16:07.233Z,96.60
2022-11-28T08:18:34.997Z,96.60
2022-11-28T08:21:09.701Z,96.60
2022-11-28T08:23:36.433Z,96.80
2022-11-28T08:26:04.115Z,96.70
2022-11-28T08:28:31.507Z,96.60
2022-11-28T08:30:59.526Z,96.60
2022-11-28T08:33:26.432Z,96.70
2022-11-28T08:35:53.188Z,96.70
2022-11-28T08:38:20.003Z,96.60
2022-11-28T08:40:46.683Z,96.60
2022-11-28T08:43:13.464Z,96.50
2022-11-28T08:45:40.233Z,96.60
2022-11-28T08:48:07.060Z,96.50
2022-11-28T08:50:33.950Z,96.60
2022-11-28T08:53:07.505Z,96.60
2022-11-28T08:55:39.121Z,96.60
2022-11-28T08:58:08.519Z,96.60
2022-11-28T09:00:35.295Z,96.70
2022-11-28T09:03:02.308Z,96.60
2022-11-28T09:05:29.584Z,96.50
2022-11-28T09:07:56.484Z,96.60
2022-11-28T09:10:23.484Z,96.80
2022-11-28T09:12:50.297Z,96.80
2022-11-28T09:15:17.894Z,96.80
2022-11-28T09:17:45.017Z,96.70
2022-11-28T09:20:11.986Z,96.60
2022-11-28T09:22:38.754Z,96.70
2022-11-28T09:25:05.651Z,96.80
2022-11-28T09:27:32.355Z,96.80
2022-11-28T09:29:59.147Z,96.80
2022-11-28T09:32:25.863Z,96.70
2022-11-28T09:34:52.676Z,96.80
2022-11-28T09:37:19.522Z,96.80
2022-11-28T09:40:11.609Z,96.80
2022-11-28T09:42:41.941Z,96.70
2022-11-28T09:45:14.693Z,96.80
2022-11-28T09:47:43.411Z,96.80
2022-11-28T09:50:14.934Z,96.80
2022-11-28T09:52:41.694Z,96.90
2022-11-28T09:55:27.236Z,96.80
2022-11-28T09:57:54.138Z,96.80
2022-11-28T10:00:22.780Z,96.90
2022-11-28T10:03:00.259Z,96.90
2022-11-28T10:05:39.404Z,96.80
2022-11-28T10:08:21.209Z,97.00
2022-11-28T10:10:49.471Z,96.90
2022-11-28T10:14:07.345Z,96.90
2022-11-28T10:16:35.418Z,96.90
2022-11-28T10:19:06.116Z,96.90
2022-11-28T10:21:36.863Z,96.90
2022-11-28T10:24:18.331Z,97.00
2022-11-28T10:26:46.947Z,97.00
2022-11-28T10:29:38.757Z,97.00
2022-11-28T10:32:06.261Z,97.00
2022-11-28T10:34:32.956Z,97.00
2022-11-28T10:37:19.832Z,97.00
2022-11-28T10:39:46.571Z,96.90
2022-11-28T10:42:36.651Z,97.00
2022-11-28T10:45:06.335Z,96.90
2022-11-28T10:47:44.697Z,96.90
2022-11-28T10:50:17.198Z,96.90
2022-11-28T10:52:44.263Z,96.90
2022-11-28T10:55:29.628Z,96.90
2022-11-28T10:58:07.964Z,97.00
2022-11-28T11:00:35.308Z,97.00
2022-11-28T11:03:02.486Z,96.90
2022-11-28T11:05:30.695Z,96.90
2022-11-28T11:07:58.564Z,96.90
2022-11-28T11:10:43.981Z,97.00
2022-11-28T11:13:16.368Z,97.00
2022-11-28T11:15:45.968Z,97.00
2022-11-28T11:18:23.113Z,96.90
2022-11-28T11:20:49.919Z,97.00
2022-11-28T11:23:17.804Z,96.90
2022-11-28T11:25:47.277Z,96.90
2022-11-28T11:28:32.190Z,96.90
2022-11-28T11:31:03.260Z,96.80
2022-11-28T11:33:37.705Z,96.90
2022-11-28T11:36:05.398Z,96.90
2022-11-28T11:38:37.967Z,96.90
2022-11-28T11:41:21.568Z,97.00
2022-11-28T11:43:48.329Z,97.10
2022-11-28T11:46:15.960Z,97.10
2022-11-28T11:48:43.843Z,97.10
2022-11-28T11:51:27.007Z,97.10
2022-11-28T11:54:00.866Z,97.10
2022-11-28T11:56:29.686Z,97.00
2022-11-28T11:58:56.996Z,96.90
2022-11-28T12:01:24.503Z,97.00
2022-11-28T12:04:05.610Z,97.00
2022-11-28T12:06:42.522Z,96.90
2022-11-28T12:09:30.208Z,97.00
2022-11-28T12:12:00.540Z,97.00
2022-11-28T12:14:31.988Z,96.90
2022-11-28T12:17:32.734Z,96.90
2022-11-28T12:20:04.269Z,96.90
2022-11-28T12:22:50.575Z,97.00
2022-11-28T12:25:26.448Z,97.00
2022-11-28T12:27:53.171Z,97.00
2022-11-28T12:30:25.106Z,97.00
2022-11-28T12:32:51.836Z,96.90
2022-11-28T12:35:37.102Z,96.80
2022-11-28T12:38:24.692Z,96.90
2022-11-28T12:40:54.552Z,96.90
2022-11-28T12:43:41.403Z,96.90
2022-11-28T12:46:08.235Z,96.90
2022-11-28T12:48:53.847Z,96.90
2022-11-28T12:51:21.018Z,96.80
2022-11-28T12:54:05.916Z,96.80
2022-11-28T12:56:32.629Z,96.80
2022-11-28T12:59:08.473Z,96.80
2022-11-28T13:01:48.376Z,96.80
2022-11-28T13:04:20.903Z,96.90
2022-11-28T13:07:01.175Z,96.80
2022-11-28T13:09:30.948Z,96.80
2022-11-28T13:12:00.457Z,96.80
2022-11-28T13:14:27.212Z,96.80
2022-11-28T13:16:55.677Z,96.90
2022-11-28T13:19:25.416Z,96.90
2022-11-28T13:21:55.157Z,96.90
2022-11-28T13:24:37.682Z,96.90
2022-11-28T13:27:04.336Z,96.90
2022-11-28T13:29:54.104Z,96.90
2022-11-28T13:32:38.939Z,96.90
2022-11-28T13:35:06.117Z,96.90
2022-11-28T13:40:54.582Z,96.90
2022-11-28T13:43:46.393Z,97.00
2022-11-28T13:46:13.776Z,97.00
2022-11-28T13:49:12.463Z,97.00
2022-11-28T13:51:32.591Z,97.00
2022-11-28T13:54:18.263Z,97.00
2022-11-28T13:56:46.014Z,97.00
2022-11-28T13:59:20.781Z,97.00
2022-11-28T14:01:49.195Z,97.10
2022-11-28T14:04:18.154Z,97.00
2022-11-28T14:06:46.946Z,97.10
2022-11-28T14:09:16.587Z,97.10
2022-11-28T14:11:43.335Z,97.10
2022-11-28T14:14:13.181Z,97.10
2022-11-28T14:16:52.081Z,97.00
2022-11-28T14:19:45.112Z,97.00
2022-11-28T14:22:14.596Z,97.00
2022-11-28T14:24:41.400Z,97.10
2022-11-28T14:27:15.733Z,97.10
2022-11-28T14:29:47.345Z,97.10
2022-11-28T14:32:32.780Z,97.10
2022-11-28T14:34:59.802Z,97.10
2022-11-28T14:37:30.063Z,97.10
2022-11-28T14:39:59.045Z,97.10
2022-11-28T14:42:58.805Z,97.10
2022-11-28T14:45:31.373Z,97.10
2022-11-28T14:48:33.479Z,97.10
2022-11-28T14:51:02.205Z,97.20
2022-11-28T14:53:43.836Z,97.20
2022-11-28T14:56:10.806Z,97.20
2022-11-28T14:58:37.990Z,97.10
2022-11-28T15:01:08.194Z,97.20
2022-11-28T15:03:59.344Z,97.10
2022-11-28T15:06:32.947Z,97.10
2022-11-28T15:08:59.763Z,97.10
2022-11-28T15:11:36.025Z,97.10
2022-11-28T15:14:05.464Z,97.20
2022-11-28T15:16:32.558Z,97.10
2022-11-28T15:19:04.578Z,97.10
2022-11-28T15:21:33.293Z,97.10
2022-11-28T15:24:00.059Z,97.10
2022-11-28T15:26:28.018Z,97.10
2022-11-28T15:29:10.449Z,97.20
2022-11-28T15:31:37.633Z,97.20
2022-11-28T15:34:07.992Z,97.20
2022-11-28T15:36:34.816Z,97.20
2022-11-28T15:39:01.630Z,97.10
2022-11-28T15:41:28.457Z,97.10
2022-11-28T15:43:55.896Z,97.10
2022-11-28T15:46:32.577Z,97.10
2022-11-28T15:49:01.556Z,97.10
2022-11-28T15:51:29.596Z,97.20
2022-11-28T15:53:56.681Z,97.10
2022-11-28T15:56:23.733Z,97.20
2022-11-28T15:58:52.005Z,97.10
2022-11-28T16:01:18.801Z,97.20
2022-11-28T16:03:45.797Z,97.20
2022-11-28T16:06:12.557Z,97.20
2022-11-28T16:08:41.110Z,97.20
2022-11-28T16:11:09.095Z,97.20
2022-11-28T16:13:37.918Z,97.10
2022-11-28T16:16:09.352Z,97.10
2022-11-28T16:18:36.085Z,97.10
2022-11-28T16:21:04.067Z,97.10
2022-11-28T16:23:34.762Z,97.10
2022-11-28T16:26:21.536Z,97.00
2022-11-28T16:28:57.448Z,97.30
2022-11-28T16:31:24.969Z,97.00
2022-11-28T16:33:52.164Z,97.10
2022-11-28T16:36:24.461Z,97.10
2022-11-28T16:38:52.890Z,97.00
2022-11-28T16:41:25.017Z,97.00
2022-11-28T16:44:15.079Z,97.10
2022-11-28T16:46:49.800Z,97.10
2022-11-28T16:49:28.459Z,97.00
2022-11-28T16:52:13.464Z,97.10
2022-11-28T16:54:40.144Z,97.00
2022-11-28T16:57:14.781Z,97.10
2022-11-28T16:59:42.414Z,97.10
2022-11-28T17:02:18.608Z,97.10
2022-11-28T17:04:46.963Z,97.10
2022-11-28T17:07:15.325Z,97.10
2022-11-28T17:09:43.226Z,97.10
2022-11-28T17:12:19.137Z,97.10
2022-11-28T17:14:45.925Z,97.20
2022-11-28T17:17:16.490Z,97.20
2022-11-28T17:19:44.195Z,97.20
2022-11-28T17:22:21.852Z,97.20
2022-11-28T17:24:49.219Z,97.20
2022-11-28T17:27:16.315Z,97.10
2022-11-28T17:29:43.502Z,97.20
2022-11-28T17:32:11.413Z,97.10
2022-11-28T17:34:38.761Z,97.10
2022-11-28T17:37:05.787Z,97.30
2022-11-28T17:39:32.518Z,97.10
2022-11-28T17:41:59.235Z,97.10
2022-11-28T17:44:28.798Z,97.00
2022-11-28T17:46:56.728Z,97.00
2022-11-28T17:49:23.551Z,97.00
2022-11-28T17:51:51.242Z,97.00
2022-11-28T17:54:18.782Z,96.90
2022-11-28T17:56:46.353Z,97.00
2022-11-28T17:59:13.900Z,97.10
2022-11-28T18:01:40.884Z,97.10
2022-11-28T18:04:07.718Z,97.10
2022-11-28T18:06:34.482Z,97.10
2022-11-28T18:09:04.860Z,97.10
2022-11-28T18:11:35.855Z,97.20
2022-11-28T18:14:02.625Z,97.10
2022-11-28T18:16:30.851Z,97.10
2022-11-28T18:18:57.855Z,97.00
2022-11-28T18:21:26.731Z,97.00
2022-11-28T18:23:54.548Z,96.90
2022-11-28T18:26:23.867Z,96.90
2022-11-28T18:28:50.846Z,96.90
2022-11-28T18:31:22.377Z,96.90
2022-11-28T18:33:49.495Z,96.90
2022-11-28T18:36:25.946Z,96.90
2022-11-28T18:38:56.846Z,96.90
2022-11-28T18:41:23.613Z,96.90
2022-11-28T18:43:54.248Z,97.00
2022-11-28T18:46:21.084Z,96.90
2022-11-28T18:48:47.925Z,97.00
2022-11-28T18:51:16.009Z,97.00
2022-11-28T18:53:43.305Z,97.00
2022-11-28T18:56:10.417Z,97.10
2022-11-28T18:58:39.533Z,97.10
2022-11-28T19:01:14.227Z,97.10
2022-11-28T19:03:41.318Z,97.00
2022-11-28T19:06:09.748Z,97.00
2022-11-28T19:08:37.170Z,96.90
2022-11-28T19:11:06.782Z,97.00
2022-11-28T19:13:33.527Z,97.00
2022-11-28T19:16:04.266Z,97.00
2022-11-28T19:18:30.972Z,97.00
2022-11-28T19:20:57.702Z,97.10
2022-11-28T19:23:24.798Z,97.10
2022-11-28T19:25:51.536Z,97.00
2022-11-28T19:28:18.240Z,97.00
2022-11-28T19:30:45.005Z,97.10
2022-11-28T19:33:11.728Z,97.10
2022-11-28T19:35:38.539Z,97.10
2022-11-28T19:38:05.273Z,97.20
2022-11-28T19:40:31.997Z,97.10
2022-11-28T19:42:58.795Z,97.10
2022-11-28T19:45:25.612Z,97.00
2022-11-28T19:47:52.328Z,97.10
2022-11-28T19:50:19.007Z,97.10
2022-11-28T19:52:45.834Z,97.10
2022-11-28T19:55:12.595Z,97.10
2022-11-28T19:57:39.411Z,97.10
2022-11-28T20:00:06.514Z,97.10
2022-11-28T20:02:33.249Z,97.00
2022-11-28T20:04:59.986Z,97.00
2022-11-28T20:07:28.002Z,97.10
2022-11-28T20:09:54.714Z,97.00
2022-11-28T20:12:21.416Z,97.10
2022-11-28T20:14:48.178Z,97.10
2022-11-28T20:17:14.895Z,97.10
2022-11-28T20:19:41.979Z,97.10
2022-11-28T20:22:09.280Z,97.10
2022-11-28T20:24:36.009Z,97.20
2022-11-28T20:27:02.716Z,97.20
2022-11-28T20:29:29.594Z,97.10
2022-11-28T20:31:57.262Z,97.10
2022-11-28T20:34:24.381Z,97.10
2022-11-28T20:36:51.868Z,97.10
2022-11-28T20:39:18.749Z,97.10
2022-11-28T20:41:45.481Z,97.10
2022-11-28T20:44:12.196Z,97.10
2022-11-28T20:46:39.943Z,97.10
2022-11-28T20:49:07.054Z,97.10
2022-11-28T20:51:34.765Z,97.10
2022-11-28T20:54:01.698Z,97.00
2022-11-28T20:56:29.748Z,97.00
2022-11-28T20:58:58.287Z,97.00
2022-11-28T21:01:25.842Z,97.00
2022-11-28T21:03:52.796Z,97.00
2022-11-28T21:06:19.778Z,97.10
2022-11-28T21:08:46.522Z,97.10
2022-11-28T21:11:30.507Z,97.10
2022-11-28T21:14:01.212Z,97.10
2022-11-28T21:16:29.308Z,97.10
2022-11-28T21:18:56.457Z,97.20
2022-11-28T21:21:24.716Z,97.10
2022-11-28T21:23:51.424Z,97.10
2022-11-28T21:26:19.633Z,97.10
2022-11-28T21:28:47.801Z,97.10
2022-11-28T21:31:19.418Z,97.10
2022-11-28T21:33:49.785Z,97.20
2022-11-28T21:36:16.660Z,97.20
2022-11-28T21:38:43.739Z,97.10
2022-11-28T21:41:10.494Z,97.10
2022-11-28T21:43:37.221Z,97.10
2022-11-28T21:46:04.824Z,97.10
2022-11-28T21:48:32.357Z,97.10
2022-11-28T21:50:59.542Z,97.10
2022-11-28T21:53:27.070Z,97.10
2022-11-28T21:55:57.170Z,97.20
2022-11-28T21:58:26.819Z,97.10
2022-11-28T22:01:00.761Z,97.10
2022-11-28T22:03:27.911Z,97.10
2022-11-28T22:06:04.839Z,97.20
2022-11-28T22:08:31.942Z,97.20
2022-11-28T22:11:01.095Z,97.20
2022-11-28T22:13:28.370Z,97.20
2022-11-28T22:15:55.229Z,97.20
2022-11-28T22:18:21.998Z,97.20
2022-11-28T22:20:52.899Z,97.20
2022-11-28T22:23:20.048Z,97.10
2022-11-28T22:25:50.298Z,97.10
2022-11-28T22:28:17.000Z,97.10
2022-11-28T22:30:43.744Z,97.10
2022-11-28T22:33:10.564Z,97.10
2022-11-28T22:35:37.355Z,97.10
2022-11-28T22:38:04.084Z,97.10
2022-11-28T22:40:30.887Z,97.30
2022-11-28T22:42:57.605Z,97.30
2022-11-28T22:45:24.375Z,97.20
2022-11-28T22:47:51.196Z,97.20
2022-11-28T22:50:17.990Z,97.20
2022-11-28T22:52:44.796Z,97.10
2022-11-28T22:55:11.732Z,97.00
2022-11-28T22:57:38.542Z,97.10
2022-11-28T23:00:06.585Z,97.10
2022-11-28T23:02:33.430Z,97.10
2022-11-28T23:05:00.350Z,97.10
2022-11-28T23:07:27.167Z,97.20
2022-11-28T23:09:53.996Z,97.40
2022-11-28T23:12:20.721Z,97.20
2022-11-28T23:14:50.360Z,97.20
2022-11-28T23:17:17.208Z,97.10
2022-11-28T23:19:43.920Z,97.20
2022-11-28T23:22:10.595Z,97.20
2022-11-28T23:24:37.330Z,97.10
2022-11-28T23:27:04.003Z,97.10
2022-11-28T23:29:33.605Z,97.20
2022-11-28T23:32:00.442Z,97.10
2022-11-28T23:34:27.260Z,97.10
2022-11-28T23:36:53.981Z,97.10
2022-11-28T23:39:22.055Z,97.10
2022-11-28T23:41:49.533Z,97.20
2022-11-28T23:44:17.092Z,97.30
2022-11-28T23:46:44.216Z,97.20
2022-11-28T23:49:11.638Z,97.50
2022-11-28T23:51:38.525Z,97.20
2022-11-28T23:54:05.306Z,97.10
2022-11-28T23:56:33.314Z,97.10
2022-11-28T23:59:01.120Z,97.20
